createdAt,value
2023-03-26T00:00:14.086Z,4.9
2023-03-26T00:30:14.756Z,4.7
2023-03-26T01:00:22.384Z,5
2023-03-26T01:30:23.116Z,4.8
2023-03-26T02:00:22.804Z,5.6
2023-03-26T02:30:16.926Z,4.8
2023-03-26T03:00:17.109Z,4.9
2023-03-26T03:30:18.640Z,4.4
2023-03-26T04:00:19.957Z,5
2023-03-26T04:30:11.633Z,4.8
2023-03-26T05:00:12.155Z,4.8
2023-03-26T05:30:13.769Z,4.8
2023-03-26T06:00:13.762Z,4.9
2023-03-26T06:30:14.359Z,5
2023-03-26T07:00:06.607Z,4.9
2023-03-26T07:30:06.605Z,5
2023-03-26T08:30:07.532Z,6
2023-03-26T09:00:02.741Z,7.1
2023-03-26T09:30:15.465Z,7.9
2023-03-26T10:00:15.858Z,7
2023-03-26T10:30:16.681Z,6
2023-03-26T11:00:02.150Z,7.3
2023-03-26T11:30:03.530Z,8.6
2023-03-26T12:00:03.464Z,10.3
2023-03-26T12:30:26.531Z,15.2
2023-03-26T13:00:06.525Z,10.6
2023-03-26T13:30:21.956Z,12.3
2023-03-26T14:00:28.705Z,10.2
2023-03-26T14:30:13.949Z,7.4
2023-03-26T15:00:01.493Z,4.3
2023-03-26T15:30:09.360Z,5
2023-03-26T16:00:30.938Z,4.8
2023-03-26T16:30:30.902Z,4.7
2023-03-26T17:00:22.980Z,4.9
2023-03-26T17:30:18.752Z,4.5
2023-03-26T18:00:18.203Z,4.1
2023-03-26T18:30:10.365Z,3.8
2023-03-26T19:00:10.873Z,4.2
2023-03-26T19:30:18.306Z,4
2023-03-26T20:00:03.751Z,4.2
2023-03-26T20:30:05.202Z,4.2
2023-03-26T21:00:25.612Z,4.3
2023-03-26T21:30:12.035Z,4
2023-03-26T22:30:13.911Z,3.7
2023-03-26T23:00:14.363Z,3.6
2023-03-26T23:30:29.745Z,3.6
